createdAt,value
2023-03-31T00:00:15.687Z,1011.96
2023-03-31T00:02:15.581Z,1011.97
2023-03-31T00:04:15.595Z,1011.89
2023-03-31T00:06:15.505Z,1011.89
2023-03-31T00:08:15.465Z,1011.80
2023-03-31T00:10:18.673Z,1011.80
2023-03-31T00:12:15.553Z,1011.80
2023-03-31T00:14:15.484Z,1011.80
2023-03-31T00:16:15.605Z,1011.80
2023-03-31T00:18:15.578Z,1011.58
2023-03-31T00:20:15.577Z,1011.55
2023-03-31T00:22:15.543Z,1011.47
2023-03-31T00:24:15.524Z,1011.47
2023-03-31T00:26:15.475Z,1011.45
2023-03-31T00:28:15.474Z,1011.41
2023-03-31T00:30:15.522Z,1011.35
2023-03-31T00:32:15.576Z,1011.27
2023-03-31T00:34:15.526Z,1011.27
2023-03-31T00:36:15.682Z,1011.25
2023-03-31T00:38:15.518Z,1011.25
2023-03-31T00:40:15.556Z,1011.20
2023-03-31T00:42:15.508Z,1011.20
2023-03-31T00:44:45.578Z,1011.19
2023-03-31T00:46:45.583Z,1011.19
2023-03-31T00:48:45.492Z,1011.19
2023-03-31T00:50:45.596Z,1011.02
2023-03-31T00:54:45.586Z,1010.89
2023-03-31T00:58:39.098Z,1010.84
2023-03-31T01:00:39.096Z,1010.82
2023-03-31T01:02:39.147Z,1010.77
2023-03-31T01:04:39.094Z,1010.77
2023-03-31T01:06:39.192Z,1010.77
2023-03-31T01:08:39.130Z,1010.77
2023-03-31T01:10:39.227Z,1010.60
2023-03-31T01:12:39.129Z,1010.56
2023-03-31T01:14:39.170Z,1010.56
2023-03-31T01:16:39.147Z,1010.48
2023-03-31T01:18:39.161Z,1010.48
2023-03-31T01:20:39.240Z,1010.50
2023-03-31T01:22:39.157Z,1010.48
2023-03-31T01:24:39.232Z,1010.48
2023-03-31T01:26:39.113Z,1010.48
2023-03-31T01:28:39.160Z,1010.51
2023-03-31T01:30:39.105Z,1010.51
2023-03-31T01:32:39.380Z,1010.51
2023-03-31T01:34:39.118Z,1010.51
2023-03-31T01:36:39.219Z,1010.51
2023-03-31T01:38:39.152Z,1010.36
2023-03-31T01:40:39.159Z,1010.36
2023-03-31T01:42:39.126Z,1010.36
2023-03-31T01:44:39.145Z,1010.36
2023-03-31T01:46:39.160Z,1010.32
2023-03-31T01:48:39.221Z,1010.32
2023-03-31T01:50:39.112Z,1010.32
2023-03-31T01:52:39.139Z,1010.32
2023-03-31T01:54:39.178Z,1010.27
2023-03-31T01:56:39.270Z,1010.29
2023-03-31T01:58:39.161Z,1010.06
2023-03-31T02:00:39.174Z,1010.07
2023-03-31T02:02:39.190Z,1010.07
2023-03-31T02:04:39.166Z,1010.07
2023-03-31T02:06:39.222Z,1010.07
2023-03-31T02:08:39.136Z,1010.07
2023-03-31T02:10:39.145Z,1010.07
2023-03-31T02:13:09.143Z,1009.99
2023-03-31T02:15:09.167Z,1009.99
2023-03-31T02:17:09.148Z,1009.89
2023-03-31T02:19:09.133Z,1009.83
2023-03-31T02:21:09.147Z,1009.83
2023-03-31T02:23:09.142Z,1009.75
2023-03-31T02:25:09.215Z,1009.78
2023-03-31T02:27:09.269Z,1009.85
2023-03-31T02:29:09.152Z,1009.85
2023-03-31T02:31:09.230Z,1009.85
2023-03-31T02:33:09.237Z,1009.85
2023-03-31T02:35:09.243Z,1009.83
2023-03-31T02:37:09.167Z,1009.82
2023-03-31T02:39:09.161Z,1009.76
2023-03-31T02:41:09.182Z,1009.76
2023-03-31T02:43:09.146Z,1009.71
2023-03-31T02:45:09.176Z,1009.72
2023-03-31T02:47:09.145Z,1009.72
2023-03-31T02:49:09.147Z,1009.72
2023-03-31T02:51:09.351Z,1009.64
2023-03-31T02:53:09.184Z,1009.65
2023-03-31T02:55:09.167Z,1009.65
2023-03-31T02:57:09.242Z,1009.65
2023-03-31T02:59:09.157Z,1009.65
2023-03-31T03:01:09.232Z,1009.46
2023-03-31T03:03:09.339Z,1009.40
2023-03-31T03:05:09.167Z,1009.26
2023-03-31T03:07:09.256Z,1009.30
2023-03-31T03:09:09.172Z,1009.30
2023-03-31T03:11:09.173Z,1009.28
2023-03-31T03:13:09.195Z,1009.20
2023-03-31T03:15:09.196Z,1009.20
2023-03-31T03:17:09.210Z,1009.20
2023-03-31T03:19:09.202Z,1009.16
2023-03-31T03:21:09.195Z,1009.13
2023-03-31T03:23:09.289Z,1009.05
2023-03-31T03:25:09.195Z,1008.95
2023-03-31T03:27:09.203Z,1008.95
2023-03-31T03:29:09.220Z,1008.95
2023-03-31T03:31:09.283Z,1008.61
2023-03-31T03:33:09.343Z,1008.47
2023-03-31T03:35:09.282Z,1008.47
2023-03-31T03:37:09.336Z,1008.47
2023-03-31T03:39:09.191Z,1008.18
2023-03-31T03:41:09.322Z,1008.18
2023-03-31T03:43:09.197Z,1008.18
2023-03-31T03:45:09.279Z,1008.18
2023-03-31T03:47:09.250Z,1007.79
2023-03-31T03:49:09.214Z,1007.79
2023-03-31T03:51:09.276Z,1007.73
2023-03-31T03:53:09.223Z,1007.73
2023-03-31T03:55:09.228Z,1007.73
2023-03-31T03:57:09.267Z,1007.71
2023-03-31T03:59:09.420Z,1007.66
2023-03-31T04:01:09.219Z,1007.60
2023-03-31T04:03:09.345Z,1007.54
2023-03-31T04:05:09.371Z,1007.54
2023-03-31T04:07:09.222Z,1007.46
2023-03-31T04:09:39.324Z,1007.43
2023-03-31T04:11:39.316Z,1007.43
2023-03-31T04:13:39.208Z,1007.30
2023-03-31T04:15:39.266Z,1007.30
2023-03-31T04:17:39.239Z,1007.30
2023-03-31T04:19:39.283Z,1007.25
2023-03-31T04:21:39.289Z,1007.25
2023-03-31T04:23:39.300Z,1007.25
2023-03-31T04:25:39.351Z,1007.25
2023-03-31T04:27:39.230Z,1007.25
2023-03-31T04:29:39.213Z,1007.13
2023-03-31T04:31:39.273Z,1007.03
2023-03-31T04:33:39.328Z,1006.94
2023-03-31T04:35:39.353Z,1006.94
2023-03-31T04:37:39.234Z,1006.94
2023-03-31T04:39:39.334Z,1006.87
2023-03-31T04:41:39.217Z,1006.80
2023-03-31T04:43:39.227Z,1006.77
2023-03-31T04:45:39.270Z,1006.77
2023-03-31T04:47:39.275Z,1006.77
2023-03-31T04:49:39.264Z,1006.48
2023-03-31T04:51:39.298Z,1006.41
2023-03-31T04:53:39.318Z,1006.41
2023-03-31T04:55:39.338Z,1006.41
2023-03-31T04:57:39.232Z,1006.41
2023-03-31T04:59:39.260Z,1006.41
2023-03-31T05:01:39.304Z,1006.32
2023-03-31T05:03:39.280Z,1006.44
2023-03-31T05:05:39.327Z,1006.44
2023-03-31T05:07:39.240Z,1006.44
2023-03-31T05:09:39.260Z,1006.50
2023-03-31T05:11:39.263Z,1006.47
2023-03-31T05:13:39.272Z,1006.47
2023-03-31T05:15:39.261Z,1006.24
2023-03-31T05:17:39.322Z,1006.17
2023-03-31T05:19:39.310Z,1006.11
2023-03-31T05:21:39.265Z,1006.08
2023-03-31T05:23:39.276Z,1006.08
2023-03-31T05:25:39.269Z,1006.08
2023-03-31T05:27:39.304Z,1005.92
2023-03-31T05:29:39.260Z,1005.94
2023-03-31T05:31:39.357Z,1005.94
2023-03-31T05:33:39.577Z,1005.94
2023-03-31T05:35:39.432Z,1005.73
2023-03-31T05:37:39.359Z,1005.73
2023-03-31T05:39:39.470Z,1005.82
2023-03-31T05:41:39.287Z,1005.78
2023-03-31T05:43:39.394Z,1005.78
2023-03-31T05:45:39.406Z,1005.78
2023-03-31T05:47:39.329Z,1005.80
2023-03-31T05:49:39.291Z,1005.85
2023-03-31T05:51:39.349Z,1005.85
2023-03-31T05:53:39.260Z,1005.84
2023-03-31T05:55:39.388Z,1005.88
2023-03-31T05:57:39.275Z,1005.88
2023-03-31T05:59:39.392Z,1006.08
2023-03-31T06:01:39.395Z,1006.08
2023-03-31T06:03:39.364Z,1006.19
2023-03-31T06:06:09.324Z,1006.30
2023-03-31T06:08:09.300Z,1006.27
2023-03-31T06:10:09.328Z,1006.27
2023-03-31T06:12:09.328Z,1006.27
2023-03-31T06:14:09.313Z,1006.27
2023-03-31T06:16:09.334Z,1006.27
2023-03-31T06:18:09.395Z,1006.27
2023-03-31T06:20:20.404Z,1006.27
2023-03-31T06:22:09.321Z,1006.09
2023-03-31T06:24:09.394Z,1005.99
2023-03-31T06:26:09.322Z,1005.88
2023-03-31T06:28:09.544Z,1005.90
2023-03-31T06:30:09.420Z,1005.90
2023-03-31T06:32:09.348Z,1005.78
2023-03-31T06:34:11.831Z,1005.72
2023-03-31T06:36:09.401Z,1005.53
2023-03-31T06:38:09.388Z,1005.44
2023-03-31T06:40:09.343Z,1005.44
2023-03-31T06:42:09.324Z,1005.45
2023-03-31T06:44:09.300Z,1005.45
2023-03-31T06:46:09.755Z,1005.40
2023-03-31T06:48:09.315Z,1005.40
2023-03-31T06:50:09.754Z,1005.35
2023-03-31T06:52:09.309Z,1005.29
2023-03-31T06:54:09.320Z,1005.29
2023-03-31T06:56:09.527Z,1004.94
2023-03-31T06:58:09.328Z,1004.94
2023-03-31T07:00:09.445Z,1004.94
2023-03-31T07:02:09.396Z,1004.93
2023-03-31T07:04:09.611Z,1004.78
2023-03-31T07:06:09.296Z,1004.78
2023-03-31T07:08:09.316Z,1004.78
2023-03-31T07:10:09.523Z,1004.79
2023-03-31T07:12:09.326Z,1004.87
2023-03-31T07:14:09.473Z,1004.66
2023-03-31T07:16:09.441Z,1004.66
2023-03-31T07:18:09.348Z,1004.64
2023-03-31T07:20:09.334Z,1004.64
2023-03-31T07:22:09.318Z,1004.81
2023-03-31T07:24:09.392Z,1004.96
2023-03-31T07:26:09.336Z,1004.96
2023-03-31T07:28:09.321Z,1005.10
2023-03-31T07:30:09.440Z,1005.21
2023-03-31T07:32:09.507Z,1005.39
2023-03-31T07:34:09.447Z,1005.58
2023-03-31T07:36:13.158Z,1005.58
2023-03-31T07:38:09.338Z,1005.58
2023-03-31T07:40:09.452Z,1005.58
2023-03-31T07:42:09.342Z,1006.06
2023-03-31T07:44:09.316Z,1006.12
2023-03-31T07:46:09.693Z,1006.12
2023-03-31T07:48:09.390Z,1006.09
2023-03-31T07:50:09.412Z,1005.82
2023-03-31T07:52:09.438Z,1005.77
2023-03-31T07:54:09.437Z,1005.77
2023-03-31T07:56:09.350Z,1005.39
2023-03-31T07:58:09.494Z,1005.03
2023-03-31T08:00:09.417Z,1004.77
2023-03-31T08:02:09.538Z,1004.77
2023-03-31T08:04:39.392Z,1004.75
2023-03-31T08:08:23.825Z,1004.75
2023-03-31T08:10:23.957Z,1004.59
2023-03-31T08:12:23.825Z,1004.46
2023-03-31T08:14:34.207Z,1004.46
2023-03-31T08:16:24.028Z,1004.38
2023-03-31T08:18:23.806Z,1004.41
2023-03-31T08:20:23.859Z,1004.41
2023-03-31T08:22:23.896Z,1004.41
2023-03-31T08:24:23.854Z,1004.44
2023-03-31T08:26:23.820Z,1004.42
2023-03-31T08:28:23.904Z,1004.23
2023-03-31T08:30:23.840Z,1004.23
2023-03-31T08:32:23.854Z,1004.23
2023-03-31T08:34:23.943Z,1004.17
2023-03-31T08:36:23.913Z,1004.17
2023-03-31T08:38:23.943Z,1003.97
2023-03-31T08:40:23.829Z,1004.15
2023-03-31T08:42:23.833Z,1004.15
2023-03-31T08:44:23.919Z,1004.17
2023-03-31T08:46:23.856Z,1004.20
2023-03-31T08:48:23.906Z,1004.27
2023-03-31T08:50:23.832Z,1004.27
2023-03-31T08:52:23.833Z,1004.28
2023-03-31T08:54:23.918Z,1004.20
2023-03-31T08:56:23.899Z,1004.16
2023-03-31T08:58:23.891Z,1004.16
2023-03-31T09:00:23.948Z,1004.16
2023-03-31T09:02:53.878Z,1004.12
2023-03-31T09:04:53.840Z,1004.12
2023-03-31T09:06:53.854Z,1004.11
2023-03-31T09:08:53.879Z,1004.06
2023-03-31T09:10:53.886Z,1004.06
2023-03-31T09:12:53.865Z,1004.03
2023-03-31T09:14:53.977Z,1004.03
2023-03-31T09:16:54.023Z,1004.03
2023-03-31T09:18:53.863Z,1003.91
2023-03-31T09:20:53.896Z,1004.03
2023-03-31T09:22:53.891Z,1004.03
2023-03-31T09:24:53.917Z,1004.01
2023-03-31T09:26:53.918Z,1004.01
2023-03-31T09:28:53.889Z,1003.81
2023-03-31T09:30:53.871Z,1003.81
2023-03-31T09:32:53.897Z,1003.81
2023-03-31T09:34:54.152Z,1003.80
2023-03-31T09:36:54.001Z,1003.78
2023-03-31T09:38:53.878Z,1003.75
2023-03-31T09:40:53.948Z,1003.75
2023-03-31T09:42:53.909Z,1003.75
2023-03-31T09:44:53.973Z,1003.75
2023-03-31T09:46:53.899Z,1003.75
2023-03-31T09:48:53.980Z,1003.82
2023-03-31T09:50:53.904Z,1003.82
2023-03-31T09:52:53.899Z,1003.70
2023-03-31T09:54:53.953Z,1003.62
2023-03-31T09:56:54.087Z,1003.70
2023-03-31T09:58:53.984Z,1003.73
2023-03-31T10:00:53.934Z,1003.73
2023-03-31T10:02:54.045Z,1003.75
2023-03-31T10:04:53.912Z,1003.87
2023-03-31T10:06:53.927Z,1003.87
2023-03-31T10:08:53.908Z,1003.64
2023-03-31T10:10:53.944Z,1003.64
2023-03-31T10:12:53.934Z,1003.58
2023-03-31T10:14:54.039Z,1003.68
2023-03-31T10:16:53.925Z,1003.67
2023-03-31T10:18:54.022Z,1003.67
2023-03-31T10:20:53.981Z,1003.67
2023-03-31T10:22:53.909Z,1003.67
2023-03-31T10:24:53.923Z,1003.33
2023-03-31T10:26:53.998Z,1003.22
2023-03-31T10:28:53.930Z,1003.22
2023-03-31T10:30:53.996Z,1003.26
2023-03-31T10:32:54.844Z,1003.26
2023-03-31T10:34:53.939Z,1003.28
2023-03-31T10:36:53.932Z,1003.28
2023-03-31T10:38:53.960Z,1003.28
2023-03-31T10:40:53.977Z,1003.30
2023-03-31T10:42:53.986Z,1003.20
2023-03-31T10:44:53.945Z,1003.21
2023-03-31T10:46:54.070Z,1003.21
2023-03-31T10:48:53.996Z,1003.21
2023-03-31T10:50:54.004Z,1003.16
2023-03-31T10:52:53.955Z,1003.07
2023-03-31T10:54:53.950Z,1003.06
2023-03-31T10:56:54.353Z,1003.06
2023-03-31T10:59:04.704Z,1003.05
2023-03-31T11:00:53.947Z,1003.06
2023-03-31T11:02:54.186Z,1003.06
2023-03-31T11:04:54.091Z,1002.85
2023-03-31T11:07:23.999Z,1002.85
2023-03-31T11:09:24.089Z,1002.85
2023-03-31T11:11:23.980Z,1002.75
2023-03-31T11:13:24.158Z,1002.65
2023-03-31T11:15:25.220Z,1002.65
2023-03-31T11:17:24.336Z,1002.65
2023-03-31T11:19:24.217Z,1002.40
2023-03-31T11:21:24.104Z,1002.40
2023-03-31T11:23:23.989Z,1002.42
2023-03-31T11:25:24.146Z,1002.42
2023-03-31T11:27:23.961Z,1002.42
2023-03-31T11:29:24.052Z,1002.42
2023-03-31T11:31:24.084Z,1002.25
2023-03-31T11:33:24.071Z,1002.25
2023-03-31T11:35:24.031Z,1002.25
2023-03-31T11:37:24.064Z,1002.18
2023-03-31T11:39:23.987Z,1001.92
2023-03-31T11:41:24.089Z,1002.14
2023-03-31T11:43:24.014Z,1002.14
2023-03-31T11:45:24.014Z,1002.14
2023-03-31T11:47:24.063Z,1002.14
2023-03-31T11:49:24.104Z,1002.14
2023-03-31T11:51:24.073Z,1002.14
2023-03-31T11:53:24.104Z,1002.14
2023-03-31T11:55:24.130Z,1001.80
2023-03-31T11:57:24.138Z,1001.81
2023-03-31T11:59:24.048Z,1002.13
2023-03-31T12:01:24.032Z,1002.80
2023-03-31T12:03:24.163Z,1002.80
2023-03-31T12:05:24.223Z,1002.80
2023-03-31T12:07:24.009Z,1002.80
2023-03-31T12:09:24.133Z,1004.19
2023-03-31T12:11:24.122Z,1004.33
2023-03-31T12:13:24.122Z,1004.33
2023-03-31T12:15:24.054Z,1004.32
2023-03-31T12:17:24.066Z,1004.34
2023-03-31T12:19:24.076Z,1004.18
2023-03-31T12:21:24.081Z,1004.18
2023-03-31T12:23:24.106Z,1004.07
2023-03-31T12:25:24.017Z,1004.07
2023-03-31T12:27:24.125Z,1003.92
2023-03-31T12:29:24.033Z,1003.99
2023-03-31T12:31:24.095Z,1003.99
2023-03-31T12:33:24.068Z,1003.99
2023-03-31T12:35:24.119Z,1003.73
2023-03-31T12:37:24.114Z,1003.55
2023-03-31T12:39:24.122Z,1003.53
2023-03-31T12:41:24.071Z,1003.53
2023-03-31T12:43:24.182Z,1003.37
2023-03-31T12:45:24.018Z,1003.30
2023-03-31T12:47:24.085Z,1003.09
2023-03-31T12:49:24.093Z,1003.09
2023-03-31T12:51:24.154Z,1003.09
2023-03-31T12:53:24.123Z,1002.88
2023-03-31T12:55:24.181Z,1002.98
2023-03-31T12:57:24.205Z,1002.95
2023-03-31T12:59:24.054Z,1002.95
2023-03-31T13:01:24.317Z,1002.88
2023-03-31T13:03:24.120Z,1002.88
2023-03-31T13:05:54.137Z,1002.88
2023-03-31T13:07:54.141Z,1002.46
2023-03-31T13:09:54.128Z,1002.48
2023-03-31T13:11:54.205Z,1002.43
2023-03-31T13:15:54.198Z,1002.43
2023-03-31T13:17:54.247Z,1002.42
2023-03-31T13:19:54.232Z,1002.48
2023-03-31T13:21:54.147Z,1002.48
2023-03-31T13:23:54.165Z,1002.37
2023-03-31T13:25:54.150Z,1002.39
2023-03-31T13:27:54.122Z,1002.39
2023-03-31T13:29:54.167Z,1002.39
2023-03-31T13:31:54.150Z,1002.39
2023-03-31T13:33:54.110Z,1002.18
2023-03-31T13:35:54.262Z,1002.12
2023-03-31T13:37:54.156Z,1002.07
2023-03-31T13:39:54.131Z,1002.07
2023-03-31T13:41:54.177Z,1002.07
2023-03-31T13:43:54.226Z,1002.00
2023-03-31T13:45:54.131Z,1002.00
2023-03-31T13:47:54.204Z,1002.03
2023-03-31T13:49:54.601Z,1002.03
2023-03-31T13:51:54.182Z,1002.04
2023-03-31T13:53:54.210Z,1002.08
2023-03-31T13:55:54.276Z,1002.08
2023-03-31T13:57:54.299Z,1002.17
2023-03-31T13:59:54.324Z,1002.17
2023-03-31T14:01:54.382Z,1002.20
2023-03-31T14:03:54.435Z,1002.23
2023-03-31T14:05:54.375Z,1002.23
2023-03-31T14:07:55.259Z,1002.23
2023-03-31T14:09:54.675Z,1002.23
2023-03-31T14:11:54.982Z,1002.23
2023-03-31T14:13:54.515Z,1002.37
2023-03-31T14:15:54.377Z,1002.37
2023-03-31T14:17:54.506Z,1002.37
2023-03-31T14:19:54.354Z,1002.37
2023-03-31T14:21:54.255Z,1002.27
2023-03-31T14:23:54.322Z,1002.47
2023-03-31T14:25:54.256Z,1002.47
2023-03-31T14:27:54.309Z,1002.47
2023-03-31T14:29:54.423Z,1002.53
2023-03-31T14:31:54.439Z,1002.54
2023-03-31T14:33:54.414Z,1002.72
2023-03-31T14:35:54.402Z,1002.72
2023-03-31T14:37:54.357Z,1002.72
2023-03-31T14:39:54.394Z,1002.65
2023-03-31T14:41:54.379Z,1002.65
2023-03-31T14:43:54.429Z,1002.52
2023-03-31T14:45:54.445Z,1002.52
2023-03-31T14:47:54.386Z,1002.52
2023-03-31T14:49:54.428Z,1002.52
2023-03-31T14:51:54.247Z,1002.62
2023-03-31T14:53:54.276Z,1002.46
2023-03-31T14:55:59.191Z,1002.46
2023-03-31T14:57:54.201Z,1002.46
2023-03-31T14:59:54.260Z,1002.32
2023-03-31T15:01:54.328Z,1002.32
2023-03-31T15:06:03.107Z,1002.24
2023-03-31T15:08:03.112Z,1002.24
2023-03-31T15:10:03.134Z,1002.19
2023-03-31T15:12:03.136Z,1002.19
2023-03-31T15:14:05.647Z,1002.19
2023-03-31T15:16:03.155Z,1002.19
2023-03-31T15:18:03.198Z,1002.30
2023-03-31T15:20:03.179Z,1002.37
2023-03-31T15:22:03.208Z,1002.29
2023-03-31T15:24:03.096Z,1002.29
2023-03-31T15:26:03.142Z,1002.28
2023-03-31T15:28:04.158Z,1002.28
2023-03-31T15:30:03.140Z,1002.28
2023-03-31T15:32:03.306Z,1002.28
2023-03-31T15:34:03.331Z,1002.28
2023-03-31T15:36:03.160Z,1002.11
2023-03-31T15:38:03.204Z,1002.17
2023-03-31T15:40:33.114Z,1001.88
2023-03-31T15:42:33.757Z,1001.88
2023-03-31T15:44:33.200Z,1001.88
2023-03-31T15:46:33.212Z,1001.93
2023-03-31T15:48:33.176Z,1001.93
2023-03-31T15:50:33.192Z,1001.92
2023-03-31T15:52:33.130Z,1001.92
2023-03-31T15:54:33.084Z,1001.92
2023-03-31T15:56:35.805Z,1002.02
2023-03-31T15:58:33.134Z,1002.05
2023-03-31T16:00:33.186Z,1002.05
2023-03-31T16:02:33.216Z,1002.05
2023-03-31T16:04:33.183Z,1002.04
2023-03-31T16:06:33.120Z,1002.04
2023-03-31T16:08:33.245Z,1002.04
2023-03-31T16:10:33.116Z,1002.04
2023-03-31T16:12:33.169Z,1002.04
2023-03-31T16:14:33.409Z,1002.07
2023-03-31T16:16:33.241Z,1002.07
2023-03-31T16:18:33.233Z,1002.07
2023-03-31T16:20:33.224Z,1002.07
2023-03-31T16:22:33.131Z,1002.07
2023-03-31T16:24:33.115Z,1002.15
2023-03-31T16:26:33.127Z,1002.20
2023-03-31T16:28:33.174Z,1002.20
2023-03-31T16:30:33.266Z,1002.20
2023-03-31T16:32:33.270Z,1002.20
2023-03-31T16:34:33.205Z,1002.23
2023-03-31T16:36:33.276Z,1002.27
2023-03-31T16:38:33.296Z,1002.27
2023-03-31T16:40:33.134Z,1002.27
2023-03-31T16:42:33.168Z,1002.27
2023-03-31T16:44:33.251Z,1002.27
2023-03-31T16:46:33.253Z,1002.38
2023-03-31T16:48:33.310Z,1002.45
2023-03-31T16:50:33.253Z,1002.45
2023-03-31T16:52:33.257Z,1002.43
2023-03-31T16:54:33.184Z,1002.42
2023-03-31T16:56:33.174Z,1002.45
2023-03-31T16:58:33.195Z,1002.45
2023-03-31T17:00:33.241Z,1002.43
2023-03-31T17:02:33.295Z,1002.39
2023-03-31T17:04:33.145Z,1002.38
2023-03-31T17:06:33.245Z,1002.34
2023-03-31T17:08:33.268Z,1002.34
2023-03-31T17:10:33.196Z,1002.34
2023-03-31T17:12:33.195Z,1002.47
2023-03-31T17:14:33.212Z,1002.43
2023-03-31T17:16:46.935Z,1002.48
2023-03-31T17:18:33.303Z,1002.48
2023-03-31T17:20:33.474Z,1002.31
2023-03-31T17:22:33.277Z,1002.31
2023-03-31T17:24:33.148Z,1002.31
2023-03-31T17:26:33.190Z,1002.31
2023-03-31T17:28:33.228Z,1002.43
2023-03-31T17:30:33.214Z,1002.27
2023-03-31T17:33:03.306Z,1002.32
2023-03-31T17:35:03.270Z,1002.32
2023-03-31T17:37:03.205Z,1002.44
2023-03-31T17:39:03.303Z,1002.44
2023-03-31T17:41:03.212Z,1002.44
2023-03-31T17:43:03.178Z,1002.49
2023-03-31T17:45:03.213Z,1002.49
2023-03-31T17:47:03.336Z,1002.53
2023-03-31T17:49:03.269Z,1002.53
2023-03-31T17:51:03.252Z,1002.53
2023-03-31T17:53:03.221Z,1002.58
2023-03-31T17:55:03.176Z,1002.55
2023-03-31T17:57:03.253Z,1002.65
2023-03-31T17:59:03.203Z,1002.65
2023-03-31T18:01:03.216Z,1002.72
2023-03-31T18:03:03.289Z,1002.72
2023-03-31T18:05:03.222Z,1002.81
2023-03-31T18:07:03.190Z,1002.82
2023-03-31T18:09:03.303Z,1002.82
2023-03-31T18:11:03.229Z,1002.82
2023-03-31T18:13:03.246Z,1002.82
2023-03-31T18:15:03.220Z,1002.82
2023-03-31T18:17:03.255Z,1002.87
2023-03-31T18:19:03.257Z,1002.87
2023-03-31T18:21:03.300Z,1002.87
2023-03-31T18:23:03.196Z,1002.97
2023-03-31T18:25:03.208Z,1002.97
2023-03-31T18:27:03.226Z,1002.97
2023-03-31T18:29:03.273Z,1003.01
2023-03-31T18:31:03.256Z,1003.01
2023-03-31T18:33:03.494Z,1003.14
2023-03-31T18:35:03.303Z,1003.12
2023-03-31T18:37:03.328Z,1003.12
2023-03-31T18:39:03.221Z,1003.17
2023-03-31T18:41:03.199Z,1003.17
2023-03-31T18:43:03.300Z,1003.28
2023-03-31T18:45:03.239Z,1003.28
2023-03-31T18:47:03.353Z,1003.28
2023-03-31T18:49:03.264Z,1003.39
2023-03-31T18:51:03.300Z,1003.39
2023-03-31T18:53:03.288Z,1003.39
2023-03-31T18:55:03.239Z,1003.39
2023-03-31T18:57:03.249Z,1003.39
2023-03-31T18:59:03.253Z,1003.72
2023-03-31T19:01:03.276Z,1003.73
2023-03-31T19:03:03.293Z,1003.57
2023-03-31T19:05:03.231Z,1003.57
2023-03-31T19:07:03.318Z,1003.60
2023-03-31T19:09:03.255Z,1003.65
2023-03-31T19:11:03.222Z,1003.65
2023-03-31T19:13:03.234Z,1003.65
2023-03-31T19:15:03.285Z,1003.65
2023-03-31T19:17:03.288Z,1003.65
2023-03-31T19:19:03.296Z,1003.51
2023-03-31T19:21:03.364Z,1003.51
2023-03-31T19:23:03.326Z,1003.51
2023-03-31T19:25:33.267Z,1003.51
2023-03-31T19:27:33.241Z,1003.42
2023-03-31T19:29:33.276Z,1003.42
2023-03-31T19:31:33.372Z,1003.42
2023-03-31T19:33:33.294Z,1003.42
2023-03-31T19:35:33.369Z,1003.42
2023-03-31T19:37:33.535Z,1003.50
2023-03-31T19:39:33.358Z,1003.46
2023-03-31T19:41:33.277Z,1003.45
2023-03-31T19:43:33.278Z,1003.45
2023-03-31T19:45:33.292Z,1003.40
2023-03-31T19:47:33.302Z,1003.35
2023-03-31T19:49:33.416Z,1003.30
2023-03-31T19:51:33.328Z,1003.30
2023-03-31T19:53:33.348Z,1003.30
2023-03-31T19:55:33.257Z,1003.27
2023-03-31T19:57:33.541Z,1003.16
2023-03-31T19:59:33.286Z,1003.16
2023-03-31T20:01:33.462Z,1003.16
2023-03-31T20:03:33.602Z,1003.09
2023-03-31T20:05:33.316Z,1003.09
2023-03-31T20:07:33.507Z,1003.09
2023-03-31T20:09:33.362Z,1003.00
2023-03-31T20:11:33.345Z,1003.00
2023-03-31T20:13:33.264Z,1003.00
2023-03-31T20:15:33.269Z,1002.99
2023-03-31T20:17:33.381Z,1003.01
2023-03-31T20:19:33.344Z,1003.01
2023-03-31T20:21:33.396Z,1003.01
2023-03-31T20:23:33.362Z,1003.01
2023-03-31T20:25:33.361Z,1003.01
2023-03-31T20:27:33.325Z,1003.01
2023-03-31T20:29:33.290Z,1003.01
2023-03-31T20:31:33.389Z,1002.99
2023-03-31T20:33:33.613Z,1002.99
2023-03-31T20:35:33.400Z,1002.99
2023-03-31T20:37:33.302Z,1002.98
2023-03-31T20:39:33.467Z,1002.98
2023-03-31T20:41:33.274Z,1003.08
2023-03-31T20:43:33.326Z,1003.02
2023-03-31T20:45:33.295Z,1003.02
2023-03-31T20:47:33.400Z,1003.15
2023-03-31T20:49:33.341Z,1003.15
2023-03-31T20:51:33.360Z,1003.18
2023-03-31T20:53:33.276Z,1003.18
2023-03-31T20:55:33.649Z,1003.18
2023-03-31T20:57:33.401Z,1003.18
2023-03-31T20:59:34.337Z,1003.29
2023-03-31T21:01:33.412Z,1003.31
2023-03-31T21:03:33.410Z,1003.36
2023-03-31T21:05:33.392Z,1003.35
2023-03-31T21:07:33.372Z,1003.35
2023-03-31T21:09:33.299Z,1003.32
2023-03-31T21:11:33.412Z,1003.34
2023-03-31T21:13:33.325Z,1003.34
2023-03-31T21:16:03.371Z,1003.40
2023-03-31T21:18:03.429Z,1003.34
2023-03-31T21:20:03.381Z,1003.40
2023-03-31T21:22:03.381Z,1003.40
2023-03-31T21:24:03.291Z,1003.40
2023-03-31T21:26:03.298Z,1003.34
2023-03-31T21:28:03.322Z,1003.34
2023-03-31T21:30:03.441Z,1003.34
2023-03-31T21:32:03.449Z,1003.29
2023-03-31T21:34:03.379Z,1003.29
2023-03-31T21:36:03.403Z,1003.37
2023-03-31T21:38:03.389Z,1003.37
2023-03-31T21:40:03.319Z,1003.37
2023-03-31T21:42:03.312Z,1003.31
2023-03-31T21:44:03.345Z,1003.34
2023-03-31T21:46:03.361Z,1003.31
2023-03-31T21:48:03.434Z,1003.27
2023-03-31T21:50:03.486Z,1003.27
2023-03-31T21:52:03.396Z,1003.27
2023-03-31T21:54:03.400Z,1003.27
2023-03-31T21:56:03.388Z,1003.27
2023-03-31T21:58:03.294Z,1003.27
2023-03-31T22:00:03.311Z,1003.27
2023-03-31T22:02:03.472Z,1003.29
2023-03-31T22:04:03.400Z,1003.22
2023-03-31T22:06:03.547Z,1003.16
2023-03-31T22:08:03.232Z,1003.16
2023-03-31T22:10:03.320Z,1003.08
2023-03-31T22:12:03.304Z,1003.08
2023-03-31T22:14:03.309Z,1003.23
2023-03-31T22:16:03.316Z,1003.23
2023-03-31T22:18:03.309Z,1003.23
2023-03-31T22:21:58.207Z,1003.27
2023-03-31T22:23:58.336Z,1003.28
2023-03-31T22:25:58.205Z,1003.31
2023-03-31T22:27:58.261Z,1003.31
2023-03-31T22:29:58.212Z,1003.34
2023-03-31T22:31:58.311Z,1003.34
2023-03-31T22:33:58.207Z,1003.34
2023-03-31T22:35:58.245Z,1003.34
2023-03-31T22:37:58.338Z,1003.34
2023-03-31T22:39:58.247Z,1003.32
2023-03-31T22:41:58.208Z,1003.34
2023-03-31T22:43:58.215Z,1003.34
2023-03-31T22:45:58.306Z,1003.34
2023-03-31T22:47:58.290Z,1003.45
2023-03-31T22:50:28.341Z,1003.45
2023-03-31T22:52:28.266Z,1003.48
2023-03-31T22:54:28.237Z,1003.42
2023-03-31T22:56:28.221Z,1003.42
2023-03-31T22:58:28.209Z,1003.43
2023-03-31T23:00:28.218Z,1003.46
2023-03-31T23:02:28.240Z,1003.50
2023-03-31T23:04:28.348Z,1003.50
2023-03-31T23:06:28.224Z,1003.33
2023-03-31T23:08:28.230Z,1003.45
2023-03-31T23:10:28.275Z,1003.42
2023-03-31T23:12:28.233Z,1003.44
2023-03-31T23:14:28.217Z,1003.44
2023-03-31T23:16:28.341Z,1003.44
2023-03-31T23:18:28.225Z,1003.48
2023-03-31T23:20:28.240Z,1003.35
2023-03-31T23:22:28.249Z,1003.46
2023-03-31T23:24:28.250Z,1003.46
2023-03-31T23:26:28.224Z,1003.44
2023-03-31T23:28:28.241Z,1003.44
2023-03-31T23:30:28.240Z,1003.47
2023-03-31T23:32:28.353Z,1003.47
2023-03-31T23:34:28.256Z,1003.44
2023-03-31T23:36:28.246Z,1003.44
2023-03-31T23:38:28.326Z,1003.51
2023-03-31T23:40:28.269Z,1003.51
2023-03-31T23:42:28.293Z,1003.51
2023-03-31T23:44:28.326Z,1003.51
2023-03-31T23:46:28.368Z,1003.48
2023-03-31T23:48:28.262Z,1003.53
2023-03-31T23:50:28.253Z,1003.53
2023-03-31T23:52:28.274Z,1003.53
2023-03-31T23:54:28.286Z,1003.53
2023-03-31T23:56:28.300Z,1003.53
2023-03-31T23:58:28.284Z,1003.53
